SCOT34 YBOK-YBOK
Flight info
| Callsign | SCOT34 |
|---|---|
| Flight time | 0h 10m |
| Altitude | 2000 |
| Route | DCT |
| Aircraft | EC35/L-SDFGRY/LB1 |
Departure
| Time | 2026-04-24 05:02 |
|---|---|
| Airport | Oakey Army Aviation Centre (YBOK) |
Arrival
| Time | 2026-04-24 05:12 |
|---|---|
| Airport | Oakey Army Aviation Centre (YBOK) |
| Time | Latitude | Longitude | Altitude | Speed | Heading |
|---|---|---|---|---|---|
| 2026-04-24 04:20 | -27.41281 | 151.73340 | 1346 ft | 0 kts | 99° |
| 2026-04-24 04:25 | -27.41277 | 151.73358 | 1354 ft | 10 kts | 92° |
| 2026-04-24 04:25 | -27.41258 | 151.73445 | 1358 ft | 13 kts | 47° |
| 2026-04-24 04:25 | -27.41233 | 151.73516 | 1357 ft | 9 kts | 105° |
| 2026-04-24 04:25 | -27.41218 | 151.73466 | 1349 ft | 1 kts | 13° |
| 2026-04-24 04:26 | -27.41201 | 151.73465 | 1347 ft | 10 kts | 30° |
| 2026-04-24 04:26 | -27.41117 | 151.73483 | 1357 ft | 13 kts | 67° |
| 2026-04-24 04:26 | -27.41046 | 151.73577 | 1361 ft | 17 kts | 60° |
| 2026-04-24 04:26 | -27.40990 | 151.73661 | 1360 ft | 11 kts | 66° |
| 2026-04-24 04:27 | -27.40934 | 151.73750 | 1362 ft | 16 kts | 59° |
| 2026-04-24 04:27 | -27.40873 | 151.73848 | 1359 ft | 14 kts | 57° |
| 2026-04-24 04:27 | -27.40821 | 151.73929 | 1360 ft | 11 kts | 68° |
| 2026-04-24 04:27 | -27.40776 | 151.74001 | 1361 ft | 11 kts | 60° |
| 2026-04-24 04:28 | -27.40769 | 151.74084 | 1362 ft | 18 kts | 131° |
| 2026-04-24 04:28 | -27.40893 | 151.74186 | 1380 ft | 26 kts | 137° |
| 2026-04-24 04:28 | -27.41050 | 151.74312 | 1371 ft | 30 kts | 145° |
| 2026-04-24 04:28 | -27.41210 | 151.74431 | 1371 ft | 28 kts | 148° |
| 2026-04-24 04:29 | -27.41360 | 151.74551 | 1378 ft | 24 kts | 148° |
| 2026-04-24 04:29 | -27.41450 | 151.74618 | 1373 ft | 9 kts | 153° |
| 2026-04-24 04:29 | -27.41469 | 151.74643 | 1365 ft | 1 kts | 117° |
| 2026-04-24 04:29 | -27.41470 | 151.74642 | 1354 ft | 5 kts | 21° |
| 2026-04-24 04:30 | -27.41463 | 151.74626 | 1361 ft | 2 kts | 95° |
| 2026-04-24 04:30 | -27.41407 | 151.74604 | 1371 ft | 25 kts | 322° |
| 2026-04-24 04:30 | -27.41260 | 151.74496 | 1371 ft | 25 kts | 325° |
| 2026-04-24 04:30 | -27.41116 | 151.74387 | 1371 ft | 26 kts | 317° |
| 2026-04-24 04:31 | -27.40954 | 151.74263 | 1379 ft | 27 kts | 308° |
| 2026-04-24 04:31 | -27.40781 | 151.74121 | 1380 ft | 33 kts | 303° |
| 2026-04-24 04:31 | -27.40575 | 151.73957 | 1377 ft | 40 kts | 309° |
| 2026-04-24 04:31 | -27.40342 | 151.73780 | 1401 ft | 39 kts | 307° |
| 2026-04-24 04:32 | -27.40300 | 151.73558 | 1380 ft | 37 kts | 215° |
| 2026-04-24 04:32 | -27.40441 | 151.73332 | 1399 ft | 34 kts | 207° |
| 2026-04-24 04:32 | -27.40543 | 151.73164 | 1384 ft | 13 kts | 200° |
| 2026-04-24 04:32 | -27.40590 | 151.73108 | 1374 ft | 7 kts | 184° |
| 2026-04-24 04:33 | -27.40604 | 151.73097 | 1381 ft | 1 kts | 173° |
| 2026-04-24 04:33 | -27.40605 | 151.73082 | 1384 ft | 9 kts | 200° |
| 2026-04-24 04:33 | -27.40693 | 151.72897 | 1376 ft | 36 kts | 212° |
| 2026-04-24 04:33 | -27.40810 | 151.72686 | 1392 ft | 20 kts | 208° |
| 2026-04-24 04:34 | -27.40886 | 151.72556 | 1382 ft | 7 kts | 198° |
| 2026-04-24 04:34 | -27.40916 | 151.72500 | 1370 ft | 5 kts | 120° |
| 2026-04-24 04:34 | -27.40946 | 151.72676 | 1415 ft | 48 kts | 98° |
| 2026-04-24 04:34 | -27.41004 | 151.73061 | 1460 ft | 46 kts | 90° |
| 2026-04-24 04:35 | -27.41042 | 151.73394 | 1499 ft | 42 kts | 83° |
| 2026-04-24 04:35 | -27.40947 | 151.73728 | 1481 ft | 50 kts | 45° |
| 2026-04-24 04:35 | -27.40759 | 151.74029 | 1509 ft | 44 kts | 27° |
| 2026-04-24 04:35 | -27.40517 | 151.73919 | 1462 ft | 42 kts | 310° |
| 2026-04-24 04:36 | -27.40344 | 151.73777 | 1437 ft | 23 kts | 349° |
| 2026-04-24 04:36 | -27.40289 | 151.73723 | 1435 ft | 2 kts | 291° |
| 2026-04-24 04:36 | -27.40237 | 151.73709 | 1409 ft | 23 kts | 51° |
| 2026-04-24 04:36 | -27.40158 | 151.73808 | 1444 ft | 7 kts | 82° |
| 2026-04-24 04:37 | -27.40126 | 151.73817 | 1431 ft | 14 kts | 149° |
| 2026-04-24 04:37 | -27.40243 | 151.73705 | 1421 ft | 43 kts | 171° |
| 2026-04-24 04:37 | -27.40567 | 151.73935 | 1491 ft | 57 kts | 144° |
| 2026-04-24 04:37 | -27.40849 | 151.73860 | 1439 ft | 66 kts | 226° |
| 2026-04-24 04:38 | -27.41045 | 151.73533 | 1466 ft | 23 kts | 204° |
| 2026-04-24 04:38 | -27.41051 | 151.73498 | 1435 ft | 3 kts | 198° |
| 2026-04-24 04:38 | -27.41063 | 151.73489 | 1432 ft | 0 kts | 171° |
| 2026-04-24 04:38 | -27.41088 | 151.73479 | 1416 ft | 14 kts | 172° |
| 2026-04-24 04:39 | -27.41203 | 151.73398 | 1393 ft | 25 kts | 195° |
| 2026-04-24 04:39 | -27.41261 | 151.73323 | 1371 ft | 5 kts | 134° |
| 2026-04-24 04:39 | -27.41274 | 151.73324 | 1361 ft | 1 kts | 121° |
| 2026-04-24 04:39 | -27.41279 | 151.73326 | 1352 ft | 1 kts | 94° |
| 2026-04-24 04:40 | -27.41280 | 151.73330 | 1353 ft | 0 kts | 89° |
| 2026-04-24 04:43 | -27.41281 | 151.73330 | 1356 ft | 1 kts | 58° |
| 2026-04-24 04:43 | -27.41190 | 151.73249 | 1369 ft | 37 kts | 281° |
| 2026-04-24 04:44 | -27.41118 | 151.72821 | 1378 ft | 49 kts | 264° |
| 2026-04-24 04:44 | -27.41079 | 151.72573 | 1371 ft | 19 kts | 256° |
| 2026-04-24 04:44 | -27.41004 | 151.72462 | 1362 ft | 24 kts | 35° |
| 2026-04-24 04:44 | -27.40919 | 151.72489 | 1366 ft | 9 kts | 107° |
| 2026-04-24 04:45 | -27.40918 | 151.72509 | 1351 ft | 0 kts | 95° |
| 2026-04-24 04:46 | -27.40930 | 151.72573 | 1379 ft | 29 kts | 104° |
| 2026-04-24 04:46 | -27.40982 | 151.72919 | 1439 ft | 54 kts | 100° |
| 2026-04-24 04:46 | -27.41043 | 151.73306 | 1471 ft | 41 kts | 96° |
| 2026-04-24 04:46 | -27.41029 | 151.73530 | 1486 ft | 28 kts | 47° |
| 2026-04-24 04:47 | -27.40808 | 151.73405 | 1413 ft | 52 kts | 273° |
| 2026-04-24 04:47 | -27.40735 | 151.72892 | 1478 ft | 80 kts | 260° |
| 2026-04-24 04:47 | -27.40684 | 151.72317 | 1525 ft | 47 kts | 208° |
| 2026-04-24 04:47 | -27.40880 | 151.72383 | 1456 ft | 24 kts | 98° |
| 2026-04-24 04:48 | -27.40910 | 151.72454 | 1382 ft | 9 kts | 93° |
| 2026-04-24 04:48 | -27.40912 | 151.72476 | 1359 ft | 0 kts | 90° |
| 2026-04-24 04:48 | -27.40919 | 151.72516 | 1375 ft | 20 kts | 115° |
| 2026-04-24 04:49 | -27.40968 | 151.72810 | 1435 ft | 47 kts | 96° |
| 2026-04-24 04:49 | -27.40959 | 151.73099 | 1522 ft | 38 kts | 30° |
| 2026-04-24 04:49 | -27.40725 | 151.72868 | 1427 ft | 56 kts | 256° |
| 2026-04-24 04:49 | -27.40672 | 151.72429 | 1420 ft | 49 kts | 223° |
| 2026-04-24 04:50 | -27.40873 | 151.72391 | 1395 ft | 26 kts | 105° |
| 2026-04-24 04:50 | -27.40909 | 151.72473 | 1365 ft | 2 kts | 109° |
| 2026-04-24 04:50 | -27.40912 | 151.72489 | 1359 ft | 0 kts | 107° |
| 2026-04-24 04:50 | -27.40916 | 151.72507 | 1366 ft | 13 kts | 102° |
| 2026-04-24 04:51 | -27.40951 | 151.72753 | 1456 ft | 38 kts | 110° |
| 2026-04-24 04:51 | -27.40978 | 151.73017 | 1514 ft | 32 kts | 80° |
| 2026-04-24 04:51 | -27.40740 | 151.72849 | 1483 ft | 63 kts | 266° |
| 2026-04-24 04:51 | -27.40679 | 151.72384 | 1444 ft | 53 kts | 221° |
| 2026-04-24 04:52 | -27.40887 | 151.72409 | 1381 ft | 27 kts | 100° |
| 2026-04-24 04:52 | -27.40910 | 151.72497 | 1356 ft | 0 kts | 117° |
| 2026-04-24 04:52 | -27.40914 | 151.72504 | 1370 ft | 5 kts | 100° |
| 2026-04-24 04:52 | -27.40996 | 151.72959 | 1430 ft | 91 kts | 94° |
| 2026-04-24 04:53 | -27.41020 | 151.73584 | 1576 ft | 76 kts | 36° |
| 2026-04-24 04:53 | -27.40745 | 151.73078 | 1443 ft | 109 kts | 262° |
| 2026-04-24 04:53 | -27.40663 | 151.72391 | 1556 ft | 55 kts | 244° |
| 2026-04-24 04:53 | -27.40903 | 151.72449 | 1394 ft | 37 kts | 90° |
| 2026-04-24 04:54 | -27.40928 | 151.72569 | 1359 ft | 10 kts | 107° |
| 2026-04-24 04:54 | -27.40928 | 151.72573 | 1359 ft | 0 kts | 99° |
| 2026-04-24 04:55 | -27.40951 | 151.72699 | 1401 ft | 51 kts | 100° |
| 2026-04-24 04:55 | -27.40810 | 151.73073 | 1512 ft | 81 kts | 312° |
| 2026-04-24 04:56 | -27.40679 | 151.72357 | 1451 ft | 93 kts | 225° |
| 2026-04-24 04:56 | -27.40898 | 151.72451 | 1373 ft | 37 kts | 103° |
| 2026-04-24 04:56 | -27.40913 | 151.72510 | 1357 ft | 0 kts | 118° |
| 2026-04-24 04:59 | -27.40923 | 151.72549 | 1381 ft | 22 kts | 96° |
| 2026-04-24 04:59 | -27.40990 | 151.72945 | 1553 ft | 76 kts | 102° |
| 2026-04-24 04:59 | -27.41323 | 151.73522 | 1593 ft | 105 kts | 143° |
| 2026-04-24 04:59 | -27.41957 | 151.74010 | 1749 ft | 115 kts | 138° |
| 2026-04-24 05:00 | -27.42569 | 151.74533 | 1914 ft | 107 kts | 141° |
| 2026-04-24 05:00 | -27.43189 | 151.75073 | 1843 ft | 113 kts | 136° |
| 2026-04-24 05:00 | -27.43731 | 151.75775 | 1598 ft | 125 kts | 125° |
| 2026-04-24 05:00 | -27.43991 | 151.76335 | 1460 ft | 12 kts | 67° |
| 2026-04-24 05:01 | -27.44035 | 151.76374 | 1449 ft | 28 kts | 106° |
| 2026-04-24 05:01 | -27.44323 | 151.76720 | 1545 ft | 93 kts | 148° |
| 2026-04-24 05:01 | -27.44848 | 151.77351 | 1557 ft | 125 kts | 129° |
| 2026-04-24 05:01 | -27.45347 | 151.78110 | 1873 ft | 118 kts | 132° |
| 2026-04-24 05:02 | -27.45812 | 151.78853 | 2124 ft | 109 kts | 113° |
| 2026-04-24 05:02 | -27.46074 | 151.79678 | 2119 ft | 116 kts | 115° |
| 2026-04-24 05:02 | -27.46428 | 151.80483 | 2128 ft | 121 kts | 123° |
| 2026-04-24 05:02 | -27.46907 | 151.81286 | 2295 ft | 122 kts | 125° |
| 2026-04-24 05:03 | -27.47410 | 151.82028 | 2497 ft | 118 kts | 127° |
| 2026-04-24 05:03 | -27.47923 | 151.82749 | 2532 ft | 118 kts | 127° |
| 2026-04-24 05:03 | -27.48442 | 151.83469 | 2539 ft | 118 kts | 125° |
| 2026-04-24 05:03 | -27.48971 | 151.84206 | 2533 ft | 122 kts | 125° |
| 2026-04-24 05:04 | -27.49510 | 151.84940 | 2530 ft | 122 kts | 128° |
| 2026-04-24 05:04 | -27.50063 | 151.85695 | 2535 ft | 127 kts | 127° |
| 2026-04-24 05:04 | -27.50621 | 151.86457 | 2539 ft | 123 kts | 125° |
| 2026-04-24 05:04 | -27.51159 | 151.87194 | 2550 ft | 123 kts | 129° |
| 2026-04-24 05:05 | -27.50776 | 151.87797 | 2241 ft | 143 kts | 345° |
| 2026-04-24 05:05 | -27.49912 | 151.87207 | 2311 ft | 143 kts | 321° |
| 2026-04-24 05:05 | -27.49188 | 151.86479 | 2361 ft | 128 kts | 313° |
| 2026-04-24 05:05 | -27.48636 | 151.85860 | 2714 ft | 112 kts | 311° |
| 2026-04-24 05:06 | -27.48100 | 151.85211 | 2858 ft | 113 kts | 310° |
| 2026-04-24 05:06 | -27.47594 | 151.84538 | 2981 ft | 112 kts | 309° |
| 2026-04-24 05:06 | -27.47122 | 151.83843 | 3110 ft | 111 kts | 306° |
| 2026-04-24 05:06 | -27.46686 | 151.83126 | 3164 ft | 110 kts | 301° |
| 2026-04-24 05:07 | -27.46298 | 151.82384 | 3172 ft | 110 kts | 297° |
| 2026-04-24 05:07 | -27.45959 | 151.81617 | 3168 ft | 109 kts | 292° |
| 2026-04-24 05:07 | -27.45666 | 151.80830 | 3195 ft | 109 kts | 289° |
| 2026-04-24 05:07 | -27.45369 | 151.80072 | 2885 ft | 103 kts | 267° |
| 2026-04-24 05:08 | -27.44999 | 151.79373 | 2371 ft | 112 kts | 305° |
| 2026-04-24 05:08 | -27.44434 | 151.78694 | 2262 ft | 127 kts | 332° |
| 2026-04-24 05:08 | -27.43839 | 151.78275 | 2229 ft | 89 kts | 228° |
| 2026-04-24 05:08 | -27.44275 | 151.77572 | 2146 ft | 116 kts | 216° |
| 2026-04-24 05:09 | -27.44689 | 151.77778 | 1979 ft | 113 kts | 67° |
| 2026-04-24 05:09 | -27.44114 | 151.78368 | 2063 ft | 108 kts | 42° |
| 2026-04-24 05:09 | -27.43513 | 151.78826 | 2262 ft | 102 kts | 41° |
| 2026-04-24 05:09 | -27.42850 | 151.79142 | 2121 ft | 106 kts | 342° |
| 2026-04-24 05:10 | -27.42168 | 151.79176 | 1788 ft | 81 kts | 285° |
| 2026-04-24 05:10 | -27.41880 | 151.78667 | 1989 ft | 96 kts | 272° |
| 2026-04-24 05:10 | -27.41695 | 151.77839 | 2218 ft | 118 kts | 271° |
| 2026-04-24 05:10 | -27.41549 | 151.76969 | 2502 ft | 107 kts | 276° |
| 2026-04-24 05:11 | -27.41384 | 151.76134 | 2658 ft | 111 kts | 260° |
| 2026-04-24 05:11 | -27.41263 | 151.75305 | 2264 ft | 105 kts | 239° |
| 2026-04-24 05:11 | -27.41164 | 151.74503 | 1812 ft | 106 kts | 240° |
| 2026-04-24 05:11 | -27.41074 | 151.73666 | 1454 ft | 100 kts | 261° |
| 2026-04-24 05:12 | -27.41000 | 151.73259 | 1375 ft | 12 kts | 199° |
| 2026-04-24 05:12 | -27.41052 | 151.73407 | 1384 ft | 11 kts | 94° |
| 2026-04-24 05:12 | -27.41076 | 151.73485 | 1367 ft | 8 kts | 92° |
| 2026-04-24 05:12 | -27.41068 | 151.73495 | 1351 ft | 0 kts | 279° |
| 2026-04-24 05:16 | -27.41036 | 151.73355 | 1396 ft | 41 kts | 275° |
| 2026-04-24 05:16 | -27.40970 | 151.72992 | 1651 ft | 58 kts | 279° |
| 2026-04-24 05:16 | -27.40866 | 151.72491 | 2022 ft | 72 kts | 275° |
| 2026-04-24 05:16 | -27.40741 | 151.71908 | 2362 ft | 82 kts | 277° |
| 2026-04-24 05:17 | -27.40602 | 151.71257 | 2666 ft | 88 kts | 279° |
| 2026-04-24 05:17 | -27.40462 | 151.70572 | 2932 ft | 92 kts | 279° |
| 2026-04-24 05:17 | -27.40324 | 151.69858 | 3237 ft | 95 kts | 278° |
| 2026-04-24 05:17 | -27.40189 | 151.69118 | 3513 ft | 98 kts | 276° |
| 2026-04-24 05:18 | -27.40059 | 151.68358 | 3780 ft | 100 kts | 275° |
| 2026-04-24 05:18 | -27.40026 | 151.67603 | 4043 ft | 93 kts | 246° |
| 2026-04-24 05:18 | -27.40515 | 151.67236 | 4248 ft | 84 kts | 176° |
| 2026-04-24 05:18 | -27.40901 | 151.67648 | 4504 ft | 88 kts | 110° |
| 2026-04-24 05:19 | -27.40602 | 151.68314 | 4640 ft | 117 kts | 51° |
| 2026-04-24 05:19 | -27.39746 | 151.68455 | 4814 ft | 133 kts | 353° |
| 2026-04-24 05:19 | -27.39061 | 151.67797 | 5110 ft | 129 kts | 297° |
| 2026-04-24 05:19 | -27.39035 | 151.66842 | 5318 ft | 124 kts | 244° |
| 2026-04-24 05:20 | -27.39587 | 151.66187 | 5502 ft | 113 kts | 200° |
| 2026-04-24 05:20 | -27.40319 | 151.66178 | 5689 ft | 105 kts | 156° |
| 2026-04-24 05:20 | -27.40776 | 151.66778 | 5898 ft | 106 kts | 114° |
| 2026-04-24 05:20 | -27.40664 | 151.67619 | 6091 ft | 118 kts | 72° |
| 2026-04-24 05:21 | -27.40002 | 151.68202 | 6268 ft | 132 kts | 30° |
| 2026-04-24 05:21 | -27.39066 | 151.68180 | 6451 ft | 141 kts | 347° |
| 2026-04-24 05:21 | -27.38391 | 151.67472 | 6786 ft | 125 kts | 291° |
| 2026-04-24 05:21 | -27.38478 | 151.66653 | 7206 ft | 95 kts | 227° |
| 2026-04-24 05:22 | -27.39005 | 151.66436 | 7636 ft | 74 kts | 179° |
| 2026-04-24 05:22 | -27.39513 | 151.66330 | 8031 ft | 73 kts | 187° |
| 2026-04-24 05:22 | -27.39980 | 151.66178 | 8425 ft | 65 kts | 189° |
| 2026-04-24 05:22 | -27.40386 | 151.66025 | 8830 ft | 57 kts | 191° |
| 2026-04-24 05:23 | -27.40729 | 151.65870 | 9311 ft | 50 kts | 195° |
| 2026-04-24 05:23 | -27.41022 | 151.65706 | 9791 ft | 44 kts | 199° |
| 2026-04-24 05:23 | -27.41289 | 151.65583 | 10209 ft | 44 kts | 177° |
| 2026-04-24 05:23 | -27.41252 | 151.65897 | 10542 ft | 68 kts | 70° |
| 2026-04-24 05:24 | -27.40776 | 151.66103 | 10902 ft | 74 kts | 38° |
| 2026-04-24 05:24 | -27.40315 | 151.66301 | 11314 ft | 68 kts | 43° |
| 2026-04-24 05:24 | -27.39897 | 151.66513 | 11745 ft | 63 kts | 50° |
| 2026-04-24 05:24 | -27.39491 | 151.66780 | 12083 ft | 73 kts | 54° |
| 2026-04-24 05:25 | -27.39063 | 151.67145 | 12352 ft | 81 kts | 56° |
| 2026-04-24 05:25 | -27.38621 | 151.67581 | 12594 ft | 87 kts | 57° |
| 2026-04-24 05:25 | -27.38170 | 151.68066 | 12817 ft | 92 kts | 58° |
| 2026-04-24 05:25 | -27.37713 | 151.68588 | 13036 ft | 95 kts | 58° |
| 2026-04-24 05:26 | -27.37252 | 151.69136 | 13236 ft | 97 kts | 59° |
| 2026-04-24 05:26 | -27.36794 | 151.69667 | 13336 ft | 87 kts | 53° |
| 2026-04-24 05:26 | -27.36359 | 151.70031 | 13318 ft | 70 kts | 8° |
| 2026-04-24 05:26 | -27.36060 | 151.69677 | 12902 ft | 75 kts | 281° |
| 2026-04-24 05:27 | -27.35941 | 151.69327 | 12858 ft | 75 kts | 281° |
| 2026-04-24 05:28 | -27.35873 | 151.69113 | 12844 ft | 75 kts | 279° |
| 2026-04-24 05:28 | -27.35709 | 151.68558 | 12812 ft | 74 kts | 277° |
| 2026-04-24 05:28 | -27.35567 | 151.68007 | 12773 ft | 73 kts | 274° |
| 2026-04-24 05:29 | -27.35443 | 151.67455 | 12647 ft | 71 kts | 264° |
| 2026-04-24 05:29 | -27.35395 | 151.66943 | 12195 ft | 51 kts | 220° |
| 2026-04-24 05:29 | -27.35640 | 151.66770 | 11875 ft | 37 kts | 179° |
| 2026-04-24 05:29 | -27.35815 | 151.66650 | 11595 ft | 22 kts | 176° |
| 2026-04-24 05:30 | -27.35894 | 151.66592 | 11205 ft | 6 kts | 173° |
| 2026-04-24 05:30 | -27.35929 | 151.66588 | 10969 ft | 9 kts | 166° |
| 2026-04-24 05:30 | -27.36004 | 151.66534 | 10793 ft | 17 kts | 172° |
| 2026-04-24 05:30 | -27.36127 | 151.66464 | 10309 ft | 26 kts | 167° |
| 2026-04-24 05:31 | -27.36411 | 151.66600 | 9849 ft | 71 kts | 147° |
| 2026-04-24 05:31 | -27.36835 | 151.66889 | 9560 ft | 73 kts | 140° |
| 2026-04-24 05:31 | -27.37253 | 151.67264 | 9163 ft | 75 kts | 135° |
| 2026-04-24 05:31 | -27.37614 | 151.67627 | 8983 ft | 64 kts | 133° |
| 2026-04-24 05:32 | -27.37902 | 151.67952 | 8670 ft | 55 kts | 129° |
| 2026-04-24 05:32 | -27.38139 | 151.68273 | 8268 ft | 53 kts | 127° |
| 2026-04-24 05:32 | -27.38353 | 151.68598 | 8078 ft | 52 kts | 128° |
| 2026-04-24 05:32 | -27.38574 | 151.68923 | 8024 ft | 52 kts | 129° |
| 2026-04-24 05:33 | -27.38781 | 151.69245 | 7652 ft | 50 kts | 122° |
| 2026-04-24 05:33 | -27.38947 | 151.69580 | 7232 ft | 48 kts | 115° |
| 2026-04-24 05:33 | -27.39071 | 151.69928 | 6964 ft | 49 kts | 118° |
| 2026-04-24 05:34 | -27.39343 | 151.70631 | 6660 ft | 48 kts | 112° |
| 2026-04-24 05:34 | -27.39437 | 151.70985 | 6277 ft | 47 kts | 108° |
| 2026-04-24 05:34 | -27.39510 | 151.71341 | 6059 ft | 47 kts | 109° |
| 2026-04-24 05:34 | -27.39586 | 151.71709 | 5992 ft | 48 kts | 112° |
| 2026-04-24 05:35 | -27.39769 | 151.71965 | 5686 ft | 53 kts | 155° |
| 2026-04-24 05:35 | -27.40114 | 151.71887 | 5278 ft | 45 kts | 171° |
| 2026-04-24 05:35 | -27.40401 | 151.71817 | 4844 ft | 32 kts | 151° |
| 2026-04-24 05:35 | -27.40649 | 151.71906 | 4261 ft | 46 kts | 136° |
| 2026-04-24 05:36 | -27.40821 | 151.72195 | 3986 ft | 43 kts | 111° |
| 2026-04-24 05:36 | -27.40817 | 151.72509 | 3527 ft | 33 kts | 85° |
| 2026-04-24 05:36 | -27.40740 | 151.72701 | 3083 ft | 27 kts | 88° |
| 2026-04-24 05:36 | -27.40711 | 151.72906 | 2884 ft | 25 kts | 103° |
| 2026-04-24 05:37 | -27.40723 | 151.73095 | 2469 ft | 23 kts | 109° |
| 2026-04-24 05:37 | -27.40936 | 151.73103 | 1941 ft | 50 kts | 179° |
| 2026-04-24 05:37 | -27.41169 | 151.73002 | 1648 ft | 22 kts | 119° |
| 2026-04-24 05:37 | -27.41250 | 151.73158 | 1455 ft | 22 kts | 99° |
| 2026-04-24 05:38 | -27.41265 | 151.73234 | 1386 ft | 7 kts | 105° |
| 2026-04-24 05:38 | -27.41274 | 151.73289 | 1368 ft | 3 kts | 102° |
| 2026-04-24 05:38 | -27.41279 | 151.73320 | 1348 ft | 3 kts | 98° |
| 2026-04-24 05:38 | -27.41280 | 151.73325 | 1343 ft | 0 kts | 87° |